KAEX

Alexandria International Airport

Alexandria, Louisiana, USA
KAEX 171720Z 1718/1818 15006KT P6SM SCT250 FM180000 VRB03KT P6SM SCT250
Issued Valid From Valid To
Nov-17 @ 17:20 UTC
(4 hours ago)
Nov-17 @ 18:00 UTC
(4 hours ago)
Nov-18 @ 18:00 UTC
(in 20 hours)
Nov-17 @ 18:00 to Nov-18 @ 00:00
KAEX 171720Z 1718/1818 15006KT P6SM SCT250
Wind Visibility Clouds
150° at 6 knots Greater than 6 miles
  • Scattered at 25,000' AGL
From Nov-18 @ 00:00 to Nov-18 @ 18:00
FM180000 VRB03KT P6SM SCT250
Wind Visibility Clouds
Variable at 3 knots Greater than 6 miles
  • Scattered at 25,000' AGL
KAEX 171720Z 1718/1818 15006KT P6SM SCT250 FM180000 VRB03KT P6SM SCT250
Issued Nov-17 @ 17:20 UTC
(4 hours ago)
Valid From Nov-17 @ 18:00 UTC
(4 hours ago)
Valid To Nov-18 @ 18:00 UTC
(in 20 hours)
Nov-17 @ 18:00 - Nov-18 @ 00:00
Wind Visibility
150° at 6 knots Greater than 6 miles
Clouds
  • Scattered at 25,000' AGL
From Nov-18 @ 00:00 - Nov-18 @ 18:00
Wind Visibility
Variable at 3 knots Greater than 6 miles
Clouds
  • Scattered at 25,000' AGL